createdAt,value
2018-08-14T00:00:58.381Z,16.73
2018-08-14T00:01:58.531Z,16.77
2018-08-14T00:02:58.685Z,16.67
2018-08-14T00:03:58.837Z,16.63
2018-08-14T00:04:59.003Z,16.52
2018-08-14T00:05:59.147Z,16.52
2018-08-14T00:06:59.304Z,16.50
2018-08-14T00:07:59.455Z,16.56
2018-08-14T00:08:59.607Z,16.45
2018-08-14T00:09:59.760Z,16.53
2018-08-14T00:10:59.911Z,16.53
2018-08-14T00:12:00.064Z,16.58
2018-08-14T00:13:00.217Z,16.58
2018-08-14T00:14:00.368Z,16.55
2018-08-14T00:15:00.523Z,16.56
2018-08-14T00:16:00.672Z,16.53
2018-08-14T00:17:00.824Z,16.49
2018-08-14T00:18:00.977Z,16.48
2018-08-14T00:19:01.131Z,16.45
2018-08-14T00:20:01.283Z,16.52
2018-08-14T00:21:01.435Z,16.60
2018-08-14T00:22:01.584Z,16.53
2018-08-14T00:23:01.738Z,16.52
2018-08-14T00:24:01.890Z,16.52
2018-08-14T00:25:02.042Z,16.48
2018-08-14T00:26:02.192Z,16.48
2018-08-14T00:27:02.345Z,16.45
2018-08-14T00:28:02.499Z,16.52
2018-08-14T00:29:02.651Z,16.59
2018-08-14T00:30:02.806Z,16.49
2018-08-14T00:31:02.967Z,16.40
2018-08-14T00:32:03.112Z,16.45
2018-08-14T00:33:03.261Z,16.37
2018-08-14T00:34:03.414Z,16.35
2018-08-14T00:35:03.563Z,16.42
2018-08-14T00:36:03.714Z,16.40
2018-08-14T00:37:03.864Z,16.42
2018-08-14T00:38:04.017Z,16.40
2018-08-14T00:39:04.165Z,16.44
2018-08-14T00:40:04.318Z,16.42
2018-08-14T00:41:04.468Z,16.27
2018-08-14T00:42:04.619Z,16.42
2018-08-14T00:43:04.771Z,16.37
2018-08-14T00:44:04.923Z,16.41
2018-08-14T00:45:05.075Z,16.34
2018-08-14T00:46:05.226Z,16.35
2018-08-14T00:47:05.378Z,16.35
2018-08-14T00:48:05.531Z,16.33
2018-08-14T00:49:05.684Z,16.35
2018-08-14T00:50:05.836Z,16.30
2018-08-14T00:51:05.989Z,16.40
2018-08-14T00:52:06.140Z,16.34
2018-08-14T00:53:06.291Z,16.37
2018-08-14T00:54:06.449Z,16.35
2018-08-14T00:55:06.596Z,16.33
2018-08-14T00:56:06.748Z,16.41
2018-08-14T00:57:06.903Z,16.30
2018-08-14T00:58:07.049Z,16.27
2018-08-14T00:59:07.201Z,16.31
2018-08-14T01:00:07.354Z,16.35
2018-08-14T01:01:07.505Z,16.31
2018-08-14T01:02:07.658Z,16.18
2018-08-14T01:03:07.808Z,16.26
2018-08-14T01:04:07.961Z,16.18
2018-08-14T01:05:08.111Z,16.30
2018-08-14T01:06:08.272Z,16.23
2018-08-14T01:07:08.415Z,16.27
2018-08-14T01:08:08.571Z,16.26
2018-08-14T01:09:08.721Z,16.22
2018-08-14T01:10:08.870Z,16.27
2018-08-14T01:11:09.024Z,16.27
2018-08-14T01:12:09.174Z,16.25
2018-08-14T01:13:09.325Z,16.25
2018-08-14T01:14:09.478Z,16.30
2018-08-14T01:15:09.630Z,16.34
2018-08-14T01:16:09.781Z,16.23
2018-08-14T01:17:09.934Z,16.16
2018-08-14T01:18:10.085Z,16.22
2018-08-14T01:19:10.238Z,16.30
2018-08-14T01:20:10.392Z,16.27
2018-08-14T01:21:10.544Z,16.18
2018-08-14T01:22:10.691Z,16.31
2018-08-14T01:23:10.848Z,16.18
2018-08-14T01:24:10.993Z,16.22
2018-08-14T01:25:11.147Z,16.22
2018-08-14T01:26:11.301Z,16.20
2018-08-14T01:27:11.451Z,16.12
2018-08-14T01:28:11.607Z,16.18
2018-08-14T01:29:11.759Z,16.15
2018-08-14T01:30:11.909Z,16.18
2018-08-14T01:31:12.062Z,16.26
2018-08-14T01:32:12.214Z,16.23
2018-08-14T01:33:12.367Z,16.25
2018-08-14T01:34:12.519Z,16.25
2018-08-14T01:35:12.667Z,16.20
2018-08-14T01:36:12.817Z,16.25
2018-08-14T01:37:12.973Z,16.18
2018-08-14T01:38:13.124Z,16.16
2018-08-14T01:39:13.277Z,16.30
2018-08-14T01:40:13.428Z,16.25
2018-08-14T01:41:13.586Z,16.26
2018-08-14T01:42:13.730Z,16.34
2018-08-14T01:43:13.884Z,16.31
2018-08-14T01:44:14.036Z,16.31
2018-08-14T01:45:14.188Z,16.42
2018-08-14T01:46:14.341Z,16.37
2018-08-14T01:47:14.500Z,16.27
2018-08-14T01:48:14.655Z,16.30
2018-08-14T01:49:14.842Z,16.34
2018-08-14T01:50:14.955Z,16.40
2018-08-14T01:51:15.103Z,16.42
2018-08-14T01:52:15.255Z,16.40
2018-08-14T01:53:15.407Z,16.35
2018-08-14T01:54:15.561Z,16.37
2018-08-14T01:55:15.712Z,16.42
2018-08-14T01:56:15.863Z,16.34
2018-08-14T01:57:16.021Z,16.25
2018-08-14T01:58:16.169Z,16.23
2018-08-14T01:59:16.325Z,16.20
2018-08-14T02:00:16.473Z,16.26
2018-08-14T02:01:16.625Z,16.12
2018-08-14T02:02:16.781Z,16.23
2018-08-14T02:03:16.929Z,16.26
2018-08-14T02:04:17.082Z,16.22
2018-08-14T02:05:17.229Z,16.16
2018-08-14T02:06:17.384Z,16.04
2018-08-14T02:07:17.538Z,16.15
2018-08-14T02:08:17.692Z,16.14
2018-08-14T02:09:17.842Z,16.07
2018-08-14T02:10:17.998Z,16.18
2018-08-14T02:11:18.147Z,16.22
2018-08-14T02:12:18.300Z,16.18
2018-08-14T02:13:18.449Z,16.11
2018-08-14T02:14:18.599Z,16.12
2018-08-14T02:15:18.754Z,15.94
2018-08-14T02:16:18.907Z,16.00
2018-08-14T02:17:19.062Z,15.97
2018-08-14T02:18:19.218Z,15.89
2018-08-14T02:19:19.367Z,15.92
2018-08-14T02:20:19.519Z,15.84
2018-08-14T02:21:19.673Z,15.88
2018-08-14T02:22:19.824Z,15.99
2018-08-14T02:23:19.976Z,15.82
2018-08-14T02:24:20.126Z,15.82
2018-08-14T02:25:20.278Z,15.84
2018-08-14T02:26:20.458Z,15.76
2018-08-14T02:27:20.578Z,15.85
2018-08-14T02:28:20.733Z,15.81
2018-08-14T02:29:20.884Z,15.74
2018-08-14T02:30:21.038Z,15.82
2018-08-14T02:31:21.190Z,15.88
2018-08-14T02:32:21.346Z,15.81
2018-08-14T02:33:21.494Z,15.88
2018-08-14T02:34:21.648Z,15.85
2018-08-14T02:35:21.801Z,15.92
2018-08-14T02:36:21.957Z,15.93
2018-08-14T02:37:22.105Z,15.89
2018-08-14T02:38:22.258Z,15.85
2018-08-14T02:39:22.411Z,15.82
2018-08-14T02:40:22.561Z,15.88
2018-08-14T02:41:22.716Z,15.89
2018-08-14T02:42:22.864Z,15.94
2018-08-14T02:43:23.019Z,15.94
2018-08-14T02:44:23.171Z,15.92
2018-08-14T02:45:23.325Z,15.97
2018-08-14T02:46:23.476Z,15.99
2018-08-14T02:47:23.631Z,15.99
2018-08-14T02:48:23.782Z,15.97
2018-08-14T02:49:23.934Z,15.93
2018-08-14T02:50:24.084Z,15.92
2018-08-14T02:51:24.238Z,16.06
2018-08-14T02:52:24.392Z,16.09
2018-08-14T02:53:24.543Z,16.04
2018-08-14T02:54:24.699Z,16.12
2018-08-14T02:55:24.850Z,16.15
2018-08-14T02:56:25.000Z,16.11
2018-08-14T02:57:25.151Z,16.16
2018-08-14T02:58:25.302Z,16.27
2018-08-14T02:59:25.457Z,16.27
2018-08-14T03:00:25.605Z,16.23
2018-08-14T03:01:25.757Z,16.20
2018-08-14T03:02:25.912Z,16.22
2018-08-14T03:03:26.063Z,16.23
2018-08-14T03:04:26.215Z,16.25
2018-08-14T03:05:26.370Z,16.15
2018-08-14T03:06:26.522Z,16.20
2018-08-14T03:07:26.675Z,16.22
2018-08-14T03:08:26.831Z,16.26
2018-08-14T03:09:26.981Z,16.25
2018-08-14T03:10:27.141Z,16.07
2018-08-14T03:11:27.288Z,16.11
2018-08-14T03:12:27.443Z,16.06
2018-08-14T03:13:27.592Z,16.16
2018-08-14T03:14:27.746Z,16.18
2018-08-14T03:15:27.901Z,16.27
2018-08-14T03:16:28.053Z,16.23
2018-08-14T03:17:28.203Z,16.23
2018-08-14T03:18:28.354Z,16.27
2018-08-14T03:19:28.549Z,16.23
2018-08-14T03:20:28.662Z,16.16
2018-08-14T03:21:28.819Z,16.11
2018-08-14T03:22:28.964Z,15.99
2018-08-14T03:23:29.117Z,16.04
2018-08-14T03:24:29.272Z,16.06
2018-08-14T03:25:29.422Z,16.07
2018-08-14T03:26:29.590Z,15.94
2018-08-14T03:27:29.726Z,15.96
2018-08-14T03:28:29.878Z,15.93
2018-08-14T03:29:30.030Z,15.99
2018-08-14T03:30:30.187Z,15.86
2018-08-14T03:31:30.335Z,15.92
2018-08-14T03:32:30.488Z,15.86
2018-08-14T03:33:30.641Z,15.82
2018-08-14T03:34:30.798Z,15.85
2018-08-14T03:35:30.950Z,15.82
2018-08-14T03:36:31.104Z,15.88
2018-08-14T03:37:31.261Z,15.79
2018-08-14T03:38:31.410Z,15.76
2018-08-14T03:39:31.564Z,15.76
2018-08-14T03:40:31.718Z,15.72
2018-08-14T03:41:31.869Z,15.81
2018-08-14T03:42:32.026Z,15.84
2018-08-14T03:43:32.176Z,15.84
2018-08-14T03:44:32.330Z,15.85
2018-08-14T03:45:32.486Z,15.94
2018-08-14T03:46:32.636Z,15.85
2018-08-14T03:47:32.786Z,15.89
2018-08-14T03:48:32.940Z,15.84
2018-08-14T03:49:33.094Z,15.97
2018-08-14T03:50:33.244Z,15.89
2018-08-14T03:51:33.399Z,15.94
2018-08-14T03:52:33.552Z,15.82
2018-08-14T03:53:33.704Z,15.79
2018-08-14T03:54:33.859Z,15.76
2018-08-14T03:55:34.011Z,15.84
2018-08-14T03:56:34.166Z,15.84
2018-08-14T03:57:34.319Z,15.88
2018-08-14T03:58:34.473Z,15.84
2018-08-14T03:59:34.626Z,15.86
2018-08-14T04:00:34.790Z,15.85
2018-08-14T04:01:34.942Z,15.92
2018-08-14T04:02:35.093Z,15.82
2018-08-14T04:03:35.252Z,15.82
2018-08-14T04:04:35.404Z,15.88
2018-08-14T04:05:35.558Z,15.93
2018-08-14T04:06:35.712Z,15.92
2018-08-14T04:07:35.866Z,15.96
2018-08-14T04:08:36.018Z,15.89
2018-08-14T04:09:36.171Z,15.86
2018-08-14T04:10:36.328Z,15.96
2018-08-14T04:11:36.480Z,16.00
2018-08-14T04:12:36.637Z,15.94
2018-08-14T04:13:36.787Z,15.93
2018-08-14T04:14:36.940Z,15.94
2018-08-14T04:15:37.094Z,15.99
2018-08-14T04:16:37.246Z,16.06
2018-08-14T04:17:37.397Z,15.97
2018-08-14T04:18:37.548Z,15.94
2018-08-14T04:19:37.706Z,15.99
2018-08-14T04:20:37.857Z,15.93
2018-08-14T04:21:38.010Z,15.89
2018-08-14T04:22:38.161Z,16.14
2018-08-14T04:23:38.312Z,16.12
2018-08-14T04:24:38.464Z,16.03
2018-08-14T04:25:38.619Z,15.99
2018-08-14T04:26:38.828Z,16.14
2018-08-14T04:27:38.921Z,16.09
2018-08-14T04:28:39.069Z,16.23
2018-08-14T04:29:39.225Z,16.25
2018-08-14T04:30:39.375Z,16.06
2018-08-14T04:31:39.529Z,16.12
2018-08-14T04:32:39.682Z,16.09
2018-08-14T04:33:39.834Z,16.06
2018-08-14T04:34:39.987Z,16.26
2018-08-14T04:35:40.140Z,16.12
2018-08-14T04:36:40.294Z,16.14
2018-08-14T04:37:40.448Z,16.14
2018-08-14T04:38:40.601Z,16.25
2018-08-14T04:39:40.753Z,16.09
2018-08-14T04:40:41.083Z,16.22
2018-08-14T04:41:41.065Z,16.23
2018-08-14T04:42:41.194Z,16.27
2018-08-14T04:43:41.462Z,16.11
2018-08-14T04:44:41.523Z,16.16
2018-08-14T04:45:41.685Z,16.22
2018-08-14T04:46:41.825Z,16.16
2018-08-14T04:47:41.978Z,16.22
2018-08-14T04:48:42.125Z,16.30
2018-08-14T04:49:42.281Z,16.23
2018-08-14T04:50:42.433Z,16.33
2018-08-14T04:51:42.585Z,16.27
2018-08-14T04:52:42.739Z,16.26
2018-08-14T04:53:42.893Z,16.26
2018-08-14T04:54:43.047Z,16.22
2018-08-14T04:55:43.208Z,16.27
2018-08-14T04:56:43.355Z,16.23
2018-08-14T04:57:43.510Z,16.30
2018-08-14T04:58:43.662Z,16.25
2018-08-14T04:59:43.837Z,16.26
2018-08-14T05:00:43.979Z,16.25
2018-08-14T05:01:44.109Z,16.35
2018-08-14T05:02:44.263Z,16.30
2018-08-14T05:03:44.418Z,16.20
2018-08-14T05:04:44.571Z,16.26
2018-08-14T05:05:44.728Z,16.22
2018-08-14T05:06:44.884Z,16.18
2018-08-14T05:07:45.048Z,16.11
2018-08-14T05:08:45.195Z,16.06
2018-08-14T05:09:45.437Z,16.25
2018-08-14T05:10:45.483Z,16.20
2018-08-14T05:11:45.634Z,16.14
2018-08-14T05:12:45.790Z,16.11
2018-08-14T05:13:45.950Z,16.20
2018-08-14T05:14:46.104Z,16.09
2018-08-14T05:15:46.253Z,16.12
2018-08-14T05:16:46.408Z,16.12
2018-08-14T05:17:46.578Z,16.09
2018-08-14T05:18:46.714Z,16.23
2018-08-14T05:19:46.870Z,16.22
2018-08-14T05:20:47.021Z,16.26
2018-08-14T05:21:47.176Z,16.48
2018-08-14T05:22:47.328Z,16.48
2018-08-14T05:23:47.481Z,16.58
2018-08-14T05:24:47.635Z,16.59
2018-08-14T05:25:47.792Z,16.77
2018-08-14T05:26:47.951Z,16.70
2018-08-14T05:27:48.093Z,16.85
2018-08-14T05:28:48.248Z,16.89
2018-08-14T05:29:48.398Z,16.95
2018-08-14T05:30:48.554Z,17.04
2018-08-14T05:31:48.704Z,16.99
2018-08-14T05:32:48.857Z,17.03
2018-08-14T05:33:49.035Z,17.03
2018-08-14T05:34:49.161Z,17.00
2018-08-14T05:35:49.312Z,17.06
2018-08-14T05:36:49.465Z,17.10
2018-08-14T05:37:49.618Z,16.99
2018-08-14T05:38:49.771Z,17.03
2018-08-14T05:39:49.928Z,17.13
2018-08-14T05:40:50.087Z,17.13
2018-08-14T05:41:50.235Z,17.25
2018-08-14T05:42:50.394Z,17.07
2018-08-14T05:43:50.537Z,17.20
2018-08-14T05:44:50.702Z,17.17
2018-08-14T05:45:50.851Z,17.17
2018-08-14T05:46:51.002Z,17.17
2018-08-14T05:47:51.154Z,17.25
2018-08-14T05:48:51.308Z,17.26
2018-08-14T05:49:51.463Z,17.41
2018-08-14T05:50:51.615Z,17.40
2018-08-14T05:51:51.770Z,17.38
2018-08-14T05:52:51.963Z,17.53
2018-08-14T05:53:52.080Z,17.47
2018-08-14T05:54:52.233Z,17.44
2018-08-14T05:55:52.386Z,17.29
2018-08-14T05:56:52.541Z,17.38
2018-08-14T05:57:52.695Z,17.43
2018-08-14T05:58:52.851Z,17.44
2018-08-14T05:59:53.003Z,17.47
2018-08-14T06:00:53.154Z,17.41
2018-08-14T06:01:53.358Z,17.46
2018-08-14T06:02:53.461Z,17.55
2018-08-14T06:03:53.616Z,17.63
2018-08-14T06:04:53.769Z,17.63
2018-08-14T06:05:53.923Z,17.70
2018-08-14T06:06:54.078Z,17.78
2018-08-14T06:07:54.229Z,17.67
2018-08-14T06:08:54.385Z,17.66
2018-08-14T06:09:54.537Z,17.78
2018-08-14T06:10:54.695Z,17.79
2018-08-14T06:11:54.846Z,17.85
2018-08-14T06:12:55.001Z,17.76
2018-08-14T06:13:55.154Z,17.76
2018-08-14T06:14:55.306Z,17.78
2018-08-14T06:15:55.462Z,17.74
2018-08-14T06:16:55.657Z,17.97
2018-08-14T06:17:55.769Z,17.92
2018-08-14T06:18:55.922Z,17.99
2018-08-14T06:19:56.076Z,17.97
2018-08-14T06:20:56.229Z,18.06
2018-08-14T06:21:56.382Z,17.95
2018-08-14T06:22:56.537Z,18.12
2018-08-14T06:23:56.693Z,18.18
2018-08-14T06:24:56.845Z,18.17
2018-08-14T06:25:56.998Z,18.13
2018-08-14T06:26:57.156Z,18.17
2018-08-14T06:27:57.312Z,18.24
2018-08-14T06:28:57.468Z,18.24
2018-08-14T06:29:57.622Z,18.37
2018-08-14T06:30:57.776Z,18.47
2018-08-14T06:31:57.923Z,18.52
2018-08-14T06:32:58.076Z,18.62
2018-08-14T06:33:58.228Z,18.74
2018-08-14T06:34:58.383Z,18.77
2018-08-14T06:35:58.540Z,18.64
2018-08-14T06:36:58.693Z,18.58
2018-08-14T06:37:58.847Z,18.55
2018-08-14T06:38:59.012Z,18.58
2018-08-14T06:39:59.157Z,18.54
2018-08-14T06:40:59.314Z,18.64
2018-08-14T06:41:59.469Z,18.37
2018-08-14T06:42:59.622Z,18.47
2018-08-14T06:43:59.779Z,18.44
2018-08-14T06:44:59.941Z,18.42
2018-08-14T06:46:00.091Z,18.46
2018-08-14T06:47:00.244Z,18.61
2018-08-14T06:48:00.400Z,18.82
2018-08-14T06:49:00.555Z,18.68
2018-08-14T06:50:00.710Z,18.82
2018-08-14T06:51:00.864Z,18.79
2018-08-14T06:52:01.020Z,18.97
2018-08-14T06:53:01.172Z,19.20
2018-08-14T06:54:01.328Z,19.43
2018-08-14T06:55:01.482Z,19.35
2018-08-14T06:56:01.637Z,19.36
2018-08-14T06:57:01.793Z,19.21
2018-08-14T06:58:01.949Z,19.15
2018-08-14T06:59:02.103Z,19.02
2018-08-14T07:00:02.262Z,18.87
2018-08-14T07:01:02.418Z,18.83
2018-08-14T07:02:02.577Z,19.02
2018-08-14T07:03:02.729Z,19.02
2018-08-14T07:04:02.882Z,19.29
2018-08-14T07:05:03.037Z,19.47
2018-08-14T07:06:03.190Z,19.24
2018-08-14T07:07:03.351Z,19.42
2018-08-14T07:08:03.506Z,19.48
2018-08-14T07:09:03.657Z,19.63
2018-08-14T07:10:03.816Z,19.57
2018-08-14T07:11:03.969Z,19.40
2018-08-14T07:12:04.129Z,19.46
2018-08-14T07:13:04.278Z,19.46
2018-08-14T07:14:04.434Z,19.42
2018-08-14T07:15:04.594Z,19.46
2018-08-14T07:16:04.745Z,19.51
2018-08-14T07:17:04.900Z,19.53
2018-08-14T07:18:05.058Z,19.46
2018-08-14T07:19:05.208Z,19.55
2018-08-14T07:20:05.366Z,19.48
2018-08-14T07:21:05.523Z,19.50
2018-08-14T07:22:05.678Z,19.47
2018-08-14T07:23:05.835Z,19.53
2018-08-14T07:24:05.987Z,19.69
2018-08-14T07:25:06.142Z,19.79
2018-08-14T07:26:06.303Z,19.65
2018-08-14T07:27:06.453Z,19.80
2018-08-14T07:28:06.608Z,19.72
2018-08-14T07:29:06.763Z,19.58
2018-08-14T07:30:06.920Z,19.54
2018-08-14T07:31:07.078Z,19.57
2018-08-14T07:32:07.230Z,19.46
2018-08-14T07:33:07.384Z,19.43
2018-08-14T07:34:07.540Z,19.46
2018-08-14T07:35:07.694Z,19.55
2018-08-14T07:36:07.853Z,19.78
2018-08-14T07:37:08.005Z,19.75
2018-08-14T07:38:08.160Z,19.95
2018-08-14T07:39:08.315Z,19.86
2018-08-14T07:40:08.469Z,19.63
2018-08-14T07:41:08.623Z,19.51
2018-08-14T07:42:08.780Z,19.47
2018-08-14T07:43:08.938Z,19.55
2018-08-14T07:44:09.091Z,19.51
2018-08-14T07:45:09.251Z,19.32
2018-08-14T07:46:09.403Z,19.28
2018-08-14T07:47:09.561Z,19.23
2018-08-14T07:48:09.715Z,19.39
2018-08-14T07:49:09.870Z,19.57
2018-08-14T07:50:10.083Z,19.47
2018-08-14T07:51:10.182Z,19.65
2018-08-14T07:52:10.337Z,19.90
2018-08-14T07:53:10.528Z,20.02
2018-08-14T07:54:10.647Z,20.30
2018-08-14T07:55:10.800Z,20.18
2018-08-14T07:56:10.958Z,20.23
2018-08-14T07:57:11.114Z,20.09
2018-08-14T07:58:11.261Z,20.27
2018-08-14T07:59:11.427Z,20.59
2018-08-14T08:00:11.583Z,20.56
2018-08-14T08:01:11.737Z,20.24
2018-08-14T08:02:11.891Z,20.25
2018-08-14T08:03:12.049Z,20.42
2018-08-14T08:04:12.214Z,20.46
2018-08-14T08:05:12.367Z,20.25
2018-08-14T08:06:12.561Z,20.25
2018-08-14T08:07:12.673Z,20.09
2018-08-14T08:08:12.830Z,20.12
2018-08-14T08:09:12.984Z,20.15
2018-08-14T08:10:13.142Z,20.13
2018-08-14T08:11:13.293Z,20.18
2018-08-14T08:12:13.536Z,20.20
2018-08-14T08:13:13.610Z,20.08
2018-08-14T08:14:13.768Z,20.24
2018-08-14T08:15:13.920Z,20.28
2018-08-14T08:16:14.075Z,20.13
2018-08-14T08:17:14.255Z,20.18
2018-08-14T08:18:14.388Z,20.18
2018-08-14T08:19:14.546Z,20.24
2018-08-14T08:20:14.702Z,20.23
2018-08-14T08:21:14.855Z,20.35
2018-08-14T08:22:15.011Z,20.42
2018-08-14T08:23:15.167Z,20.46
2018-08-14T08:24:15.324Z,20.33
2018-08-14T08:25:15.479Z,20.28
2018-08-14T08:26:15.638Z,20.33
2018-08-14T08:27:15.788Z,20.28
2018-08-14T08:28:15.942Z,20.31
2018-08-14T08:29:16.098Z,20.35
2018-08-14T08:30:16.255Z,20.35
2018-08-14T08:31:16.409Z,20.31
2018-08-14T08:32:16.566Z,20.39
2018-08-14T08:33:16.722Z,20.58
2018-08-14T08:34:16.933Z,20.53
2018-08-14T08:35:17.034Z,20.69
2018-08-14T08:36:17.191Z,20.72
2018-08-14T08:37:17.346Z,20.81
2018-08-14T08:38:17.503Z,20.83
2018-08-14T08:39:17.662Z,20.83
2018-08-14T08:40:17.812Z,20.74
2018-08-14T08:41:17.974Z,20.76
2018-08-14T08:42:18.125Z,20.71
2018-08-14T08:43:18.283Z,20.81
2018-08-14T08:44:18.439Z,20.71
2018-08-14T08:45:18.594Z,20.76
2018-08-14T08:46:18.750Z,20.83
2018-08-14T08:47:18.904Z,20.93
2018-08-14T08:48:19.061Z,20.65
2018-08-14T08:49:19.217Z,20.71
2018-08-14T08:50:19.376Z,20.86
2018-08-14T08:51:19.570Z,20.77
2018-08-14T08:52:19.686Z,20.83
2018-08-14T08:53:19.838Z,20.83
2018-08-14T08:54:19.997Z,20.77
2018-08-14T08:55:20.154Z,20.72
2018-08-14T08:56:20.309Z,20.77
2018-08-14T08:57:20.465Z,20.98
2018-08-14T08:58:20.701Z,20.95
2018-08-14T08:59:20.805Z,21.17
2018-08-14T09:00:20.965Z,21.01
2018-08-14T09:01:21.117Z,20.90
2018-08-14T09:02:21.275Z,20.74
2018-08-14T09:03:21.431Z,20.59
2018-08-14T09:04:21.588Z,20.51
2018-08-14T09:05:21.744Z,20.61
2018-08-14T09:06:21.901Z,20.30
2018-08-14T09:07:22.057Z,20.43
2018-08-14T09:08:22.214Z,20.53
2018-08-14T09:09:22.386Z,20.56
2018-08-14T09:10:22.527Z,20.71
2018-08-14T09:11:22.685Z,20.53
2018-08-14T09:12:22.836Z,20.12
2018-08-14T09:13:22.994Z,20.25
2018-08-14T09:14:23.157Z,20.31
2018-08-14T09:15:23.305Z,20.56
2018-08-14T09:16:23.463Z,20.54
2018-08-14T09:17:23.622Z,20.58
2018-08-14T09:18:23.779Z,20.47
2018-08-14T09:19:23.933Z,20.61
2018-08-14T09:20:24.090Z,20.64
2018-08-14T09:21:24.245Z,20.84
2018-08-14T09:22:24.401Z,20.64
2018-08-14T09:23:24.556Z,20.46
2018-08-14T09:24:24.709Z,20.62
2018-08-14T09:25:24.866Z,20.65
2018-08-14T09:26:25.023Z,20.66
2018-08-14T09:27:25.180Z,20.72
2018-08-14T09:28:25.337Z,20.72
2018-08-14T09:29:25.494Z,20.61
2018-08-14T09:30:25.649Z,20.65
2018-08-14T09:31:25.805Z,20.65
2018-08-14T09:32:25.962Z,20.74
2018-08-14T09:33:26.115Z,20.81
2018-08-14T09:34:26.271Z,20.79
2018-08-14T09:35:26.430Z,20.59
2018-08-14T09:36:26.588Z,20.58
2018-08-14T09:37:26.741Z,20.53
2018-08-14T09:38:26.897Z,20.71
2018-08-14T09:39:27.053Z,20.81
2018-08-14T09:40:27.210Z,20.86
2018-08-14T09:41:27.367Z,20.95
2018-08-14T09:42:27.525Z,20.89
2018-08-14T09:43:27.680Z,20.80
2018-08-14T09:44:27.843Z,20.84
2018-08-14T09:45:27.992Z,20.81
2018-08-14T09:46:28.147Z,20.84
2018-08-14T09:47:28.310Z,20.72
2018-08-14T09:48:28.462Z,20.58
2018-08-14T09:49:28.617Z,20.66
2018-08-14T09:50:28.777Z,20.80
2018-08-14T09:51:28.933Z,20.83
2018-08-14T09:52:29.087Z,20.81
2018-08-14T09:53:29.244Z,20.93
2018-08-14T09:54:29.434Z,20.98
2018-08-14T09:55:29.556Z,20.71
2018-08-14T09:56:29.712Z,20.71
2018-08-14T09:57:29.868Z,20.72
2018-08-14T09:58:30.026Z,20.74
2018-08-14T09:59:30.174Z,20.76
2018-08-14T10:00:30.333Z,20.96
2018-08-14T10:01:30.488Z,21.17
2018-08-14T10:02:30.644Z,21.13
2018-08-14T10:03:30.802Z,20.96
2018-08-14T10:04:30.958Z,21.26
2018-08-14T10:05:31.120Z,21.41
2018-08-14T10:06:31.272Z,21.32
2018-08-14T10:07:31.427Z,21.51
2018-08-14T10:08:31.581Z,21.61
2018-08-14T10:09:31.735Z,21.79
2018-08-14T10:10:31.894Z,21.83
2018-08-14T10:11:32.049Z,21.85
2018-08-14T10:12:32.202Z,21.79
2018-08-14T10:13:32.365Z,21.90
2018-08-14T10:14:32.525Z,21.78
2018-08-14T10:15:32.680Z,21.69
2018-08-14T10:16:32.836Z,21.46
2018-08-14T10:17:32.993Z,21.72
2018-08-14T10:18:33.148Z,21.46
2018-08-14T10:19:33.307Z,21.53
2018-08-14T10:20:33.465Z,21.46
2018-08-14T10:21:33.620Z,21.63
2018-08-14T10:22:33.779Z,21.41
2018-08-14T10:23:33.942Z,21.53
2018-08-14T10:24:34.091Z,21.53
2018-08-14T10:25:34.249Z,21.45
2018-08-14T10:26:34.456Z,21.09
2018-08-14T10:27:34.566Z,21.13
2018-08-14T10:28:34.765Z,21.21
2018-08-14T10:29:34.881Z,21.19
2018-08-14T10:30:35.140Z,21.20
2018-08-14T10:31:35.200Z,21.20
2018-08-14T10:32:35.331Z,21.19
2018-08-14T10:33:35.485Z,21.45
2018-08-14T10:34:35.644Z,21.46
2018-08-14T10:35:35.799Z,21.69
2018-08-14T10:36:35.954Z,21.94
2018-08-14T10:37:36.111Z,22.01
2018-08-14T10:38:36.268Z,21.98
2018-08-14T10:39:36.440Z,21.83
2018-08-14T10:40:36.583Z,22.06
2018-08-14T10:41:36.741Z,21.75
2018-08-14T10:42:36.897Z,21.69
2018-08-14T10:43:37.102Z,21.81
2018-08-14T10:44:37.216Z,21.92
2018-08-14T10:45:37.371Z,22.06
2018-08-14T10:46:37.527Z,22.10
2018-08-14T10:47:37.686Z,22.22
2018-08-14T10:48:37.844Z,22.22
2018-08-14T10:49:38.001Z,22.10
2018-08-14T10:50:38.158Z,22.20
2018-08-14T10:51:38.315Z,22.25
2018-08-14T10:52:38.470Z,22.09
2018-08-14T10:53:38.631Z,22.19
2018-08-14T10:54:38.785Z,22.19
2018-08-14T10:55:38.942Z,22.29
2018-08-14T10:56:39.100Z,22.09
2018-08-14T10:57:39.257Z,21.90
2018-08-14T10:58:39.471Z,21.78
2018-08-14T10:59:39.574Z,21.83
2018-08-14T11:00:39.732Z,21.72
2018-08-14T11:01:39.888Z,21.66
2018-08-14T11:02:40.062Z,21.59
2018-08-14T11:03:40.203Z,21.41
2018-08-14T11:04:40.448Z,21.39
2018-08-14T11:05:40.516Z,21.29
2018-08-14T11:06:40.677Z,21.20
2018-08-14T11:07:40.831Z,21.23
2018-08-14T11:08:41.025Z,21.27
2018-08-14T11:09:41.150Z,21.51
2018-08-14T11:10:41.343Z,21.54
2018-08-14T11:11:41.461Z,21.35
2018-08-14T11:12:41.621Z,21.57
2018-08-14T11:13:41.777Z,21.64
2018-08-14T11:14:41.935Z,21.51
2018-08-14T11:15:42.092Z,21.75
2018-08-14T11:16:42.251Z,21.75
2018-08-14T11:17:42.408Z,21.92
2018-08-14T11:18:42.568Z,21.63
2018-08-14T11:19:42.726Z,21.74
2018-08-14T11:20:42.883Z,21.78
2018-08-14T11:21:43.038Z,22.02
2018-08-14T11:22:43.196Z,22.20
2018-08-14T11:23:43.351Z,22.52
2018-08-14T11:24:43.517Z,22.62
2018-08-14T11:25:43.667Z,22.69
2018-08-14T11:26:43.823Z,22.72
2018-08-14T11:27:43.980Z,22.67
2018-08-14T11:28:44.136Z,22.62
2018-08-14T11:29:44.297Z,22.37
2018-08-14T11:30:44.452Z,22.44
2018-08-14T11:31:44.608Z,22.46
2018-08-14T11:32:44.765Z,22.29
2018-08-14T11:33:44.923Z,22.25
2018-08-14T11:34:45.083Z,21.78
2018-08-14T11:35:45.237Z,21.46
2018-08-14T11:36:45.396Z,21.75
2018-08-14T11:37:45.555Z,21.98
2018-08-14T11:38:45.715Z,22.01
2018-08-14T11:39:45.917Z,21.85
2018-08-14T11:40:46.024Z,21.88
2018-08-14T11:41:46.178Z,21.95
2018-08-14T11:42:46.337Z,21.69
2018-08-14T11:43:46.539Z,21.74
2018-08-14T11:44:46.633Z,21.81
2018-08-14T11:45:46.817Z,21.75
2018-08-14T11:46:46.945Z,21.91
2018-08-14T11:47:47.091Z,22.02
2018-08-14T11:48:47.248Z,22.06
2018-08-14T11:49:47.405Z,22.35
2018-08-14T11:50:47.593Z,22.54
2018-08-14T11:51:47.715Z,22.93
2018-08-14T11:52:47.878Z,22.90
2018-08-14T11:53:48.037Z,23.27
2018-08-14T11:54:48.193Z,23.46
2018-08-14T11:55:48.347Z,23.50
2018-08-14T11:56:48.502Z,23.09
2018-08-14T11:57:48.659Z,22.96
2018-08-14T11:58:48.816Z,23.05
2018-08-14T11:59:48.975Z,22.83
2018-08-14T12:00:49.137Z,22.62
2018-08-14T12:01:49.289Z,22.43
2018-08-14T12:02:49.448Z,22.31
2018-08-14T12:03:49.607Z,22.37
2018-08-14T12:04:49.761Z,22.20
2018-08-14T12:05:49.916Z,22.16
2018-08-14T12:06:50.077Z,22.20
2018-08-14T12:07:50.234Z,22.14
2018-08-14T12:08:50.391Z,22.04
2018-08-14T12:09:50.544Z,21.82
2018-08-14T12:10:50.766Z,21.94
2018-08-14T12:11:50.871Z,21.85
2018-08-14T12:12:51.068Z,21.83
2018-08-14T12:13:51.183Z,21.69
2018-08-14T12:14:51.342Z,21.76
2018-08-14T12:15:51.503Z,21.83
2018-08-14T12:16:51.660Z,22.07
2018-08-14T12:17:51.818Z,22.20
2018-08-14T12:18:51.974Z,22.20
2018-08-14T12:19:52.130Z,22.23
2018-08-14T12:20:52.289Z,22.35
2018-08-14T12:21:52.446Z,22.34
2018-08-14T12:22:52.601Z,22.68
2018-08-14T12:23:52.759Z,23.14
2018-08-14T12:24:52.917Z,23.42
2018-08-14T12:25:53.077Z,23.70
2018-08-14T12:26:53.234Z,23.29
2018-08-14T12:27:53.388Z,23.19
2018-08-14T12:28:53.545Z,23.34
2018-08-14T12:29:53.704Z,23.42
2018-08-14T12:30:53.862Z,23.07
2018-08-14T12:31:54.020Z,23.09
2018-08-14T12:32:54.183Z,23.11
2018-08-14T12:33:54.335Z,23.09
2018-08-14T12:34:54.498Z,22.78
2018-08-14T12:35:54.650Z,22.83
2018-08-14T12:36:54.809Z,22.75
2018-08-14T12:37:54.969Z,22.59
2018-08-14T12:38:55.126Z,22.60
2018-08-14T12:39:55.285Z,22.52
2018-08-14T12:40:55.443Z,22.54
2018-08-14T12:41:55.605Z,22.59
2018-08-14T12:42:55.760Z,22.49
2018-08-14T12:43:55.917Z,22.52
2018-08-14T12:44:56.075Z,22.69
2018-08-14T12:45:56.234Z,22.80
2018-08-14T12:46:56.393Z,22.80
2018-08-14T12:47:56.551Z,22.78
2018-08-14T12:48:56.710Z,22.83
2018-08-14T12:49:56.965Z,23.05
2018-08-14T12:50:57.024Z,23.01
2018-08-14T12:51:57.188Z,22.84
2018-08-14T12:52:57.340Z,22.96
2018-08-14T12:53:57.497Z,22.78
2018-08-14T12:54:57.655Z,22.90